sensor_id;sensor_type;location;lat;lon;timestamp;P1;durP1;ratioP1;P2;durP2;ratioP2
62584;SDS011;48643;51.670;5.808;2023-08-06T00:01:40;4.32;;;2.20;;
62584;SDS011;48643;51.670;5.808;2023-08-06T00:04:07;3.17;;;2.33;;
62584;SDS011;48643;51.670;5.808;2023-08-06T00:06:34;3.38;;;2.22;;
62584;SDS011;48643;51.670;5.808;2023-08-06T00:09:00;5.88;;;2.35;;
62584;SDS011;48643;51.670;5.808;2023-08-06T00:11:27;4.03;;;2.38;;
62584;SDS011;48643;51.670;5.808;2023-08-06T00:13:54;3.20;;;2.33;;
62584;SDS011;48643;51.670;5.808;2023-08-06T00:16:21;4.95;;;2.40;;
62584;SDS011;48643;51.670;5.808;2023-08-06T00:18:48;2.88;;;2.20;;
62584;SDS011;48643;51.670;5.808;2023-08-06T00:21:15;3.50;;;2.30;;
62584;SDS011;48643;51.670;5.808;2023-08-06T00:23:42;4.70;;;2.30;;
62584;SDS011;48643;51.670;5.808;2023-08-06T00:26:26;4.22;;;2.30;;
62584;SDS011;48643;51.670;5.808;2023-08-06T00:28:53;4.25;;;2.33;;
62584;SDS011;48643;51.670;5.808;2023-08-06T00:31:19;3.17;;;2.30;;
62584;SDS011;48643;51.670;5.808;2023-08-06T00:33:46;4.07;;;2.22;;
62584;SDS011;48643;51.670;5.808;2023-08-06T00:36:13;3.53;;;2.30;;
62584;SDS011;48643;51.670;5.808;2023-08-06T00:38:40;3.65;;;2.25;;
62584;SDS011;48643;51.670;5.808;2023-08-06T00:41:08;4.38;;;2.17;;
62584;SDS011;48643;51.670;5.808;2023-08-06T00:43:35;4.30;;;2.50;;
62584;SDS011;48643;51.670;5.808;2023-08-06T00:46:02;5.38;;;2.60;;
62584;SDS011;48643;51.670;5.808;2023-08-06T00:48:29;3.85;;;2.30;;
62584;SDS011;48643;51.670;5.808;2023-08-06T00:50:56;3.40;;;2.22;;
62584;SDS011;48643;51.670;5.808;2023-08-06T00:53:23;3.47;;;2.40;;
62584;SDS011;48643;51.670;5.808;2023-08-06T00:55:50;3.92;;;2.20;;
62584;SDS011;48643;51.670;5.808;2023-08-06T00:58:17;3.40;;;2.40;;
62584;SDS011;48643;51.670;5.808;2023-08-06T01:00:45;3.00;;;2.25;;
62584;SDS011;48643;51.670;5.808;2023-08-06T01:03:12;2.88;;;2.13;;
62584;SDS011;48643;51.670;5.808;2023-08-06T01:05:39;3.05;;;2.05;;
62584;SDS011;48643;51.670;5.808;2023-08-06T01:08:15;2.70;;;2.08;;
62584;SDS011;48643;51.670;5.808;2023-08-06T01:13:39;3.03;;;2.10;;
62584;SDS011;48643;51.670;5.808;2023-08-06T01:16:15;3.17;;;2.30;;
62584;SDS011;48643;51.670;5.808;2023-08-06T01:18:42;3.25;;;2.20;;
62584;SDS011;48643;51.670;5.808;2023-08-06T01:21:13;3.72;;;2.17;;
62584;SDS011;48643;51.670;5.808;2023-08-06T01:23:40;3.20;;;2.08;;
62584;SDS011;48643;51.670;5.808;2023-08-06T01:26:10;2.83;;;2.10;;
62584;SDS011;48643;51.670;5.808;2023-08-06T01:29:06;3.03;;;2.20;;
62584;SDS011;48643;51.670;5.808;2023-08-06T01:31:37;3.85;;;2.25;;
62584;SDS011;48643;51.670;5.808;2023-08-06T01:34:06;2.80;;;2.20;;
62584;SDS011;48643;51.670;5.808;2023-08-06T01:36:36;4.28;;;2.10;;
62584;SDS011;48643;51.670;5.808;2023-08-06T01:39:03;4.78;;;2.50;;
62584;SDS011;48643;51.670;5.808;2023-08-06T01:41:31;3.22;;;2.20;;
62584;SDS011;48643;51.670;5.808;2023-08-06T01:43:58;3.33;;;2.10;;
62584;SDS011;48643;51.670;5.808;2023-08-06T01:46:24;3.25;;;2.15;;
62584;SDS011;48643;51.670;5.808;2023-08-06T01:48:51;3.35;;;2.20;;
62584;SDS011;48643;51.670;5.808;2023-08-06T01:51:18;4.78;;;2.25;;
62584;SDS011;48643;51.670;5.808;2023-08-06T01:53:45;3.42;;;2.10;;
62584;SDS011;48643;51.670;5.808;2023-08-06T01:56:12;4.03;;;2.17;;
62584;SDS011;48643;51.670;5.808;2023-08-06T01:58:39;3.42;;;2.20;;
62584;SDS011;48643;51.670;5.808;2023-08-06T02:01:06;2.90;;;2.10;;
62584;SDS011;48643;51.670;5.808;2023-08-06T02:03:32;3.17;;;2.42;;
62584;SDS011;48643;51.670;5.808;2023-08-06T02:05:59;3.97;;;2.15;;
62584;SDS011;48643;51.670;5.808;2023-08-06T02:08:27;4.38;;;2.00;;
62584;SDS011;48643;51.670;5.808;2023-08-06T02:10:53;2.65;;;2.22;;
62584;SDS011;48643;51.670;5.808;2023-08-06T02:13:20;3.67;;;2.22;;
62584;SDS011;48643;51.670;5.808;2023-08-06T02:15:47;3.33;;;2.20;;
62584;SDS011;48643;51.670;5.808;2023-08-06T02:18:15;2.72;;;2.20;;
62584;SDS011;48643;51.670;5.808;2023-08-06T02:20:42;3.33;;;2.40;;
62584;SDS011;48643;51.670;5.808;2023-08-06T02:23:09;3.10;;;2.30;;
62584;SDS011;48643;51.670;5.808;2023-08-06T02:25:36;2.58;;;2.00;;
62584;SDS011;48643;51.670;5.808;2023-08-06T02:28:03;3.55;;;2.38;;
62584;SDS011;48643;51.670;5.808;2023-08-06T02:30:30;3.60;;;2.20;;
62584;SDS011;48643;51.670;5.808;2023-08-06T02:32:58;2.90;;;2.30;;
62584;SDS011;48643;51.670;5.808;2023-08-06T02:35:26;2.90;;;2.17;;
62584;SDS011;48643;51.670;5.808;2023-08-06T02:37:53;5.35;;;2.42;;
62584;SDS011;48643;51.670;5.808;2023-08-06T02:40:21;3.10;;;2.30;;
62584;SDS011;48643;51.670;5.808;2023-08-06T02:42:48;4.05;;;2.22;;
62584;SDS011;48643;51.670;5.808;2023-08-06T02:45:15;3.03;;;2.17;;
62584;SDS011;48643;51.670;5.808;2023-08-06T02:47:42;3.10;;;2.25;;
62584;SDS011;48643;51.670;5.808;2023-08-06T02:50:09;4.28;;;2.20;;
62584;SDS011;48643;51.670;5.808;2023-08-06T02:52:36;3.17;;;2.30;;
62584;SDS011;48643;51.670;5.808;2023-08-06T02:55:05;3.17;;;2.25;;
62584;SDS011;48643;51.670;5.808;2023-08-06T02:57:34;4.88;;;2.38;;
62584;SDS011;48643;51.670;5.808;2023-08-06T03:00:01;2.75;;;2.30;;
62584;SDS011;48643;51.670;5.808;2023-08-06T03:02:28;2.75;;;2.10;;
62584;SDS011;48643;51.670;5.808;2023-08-06T03:05:01;3.47;;;2.40;;
62584;SDS011;48643;51.670;5.808;2023-08-06T03:07:33;3.20;;;2.40;;
62584;SDS011;48643;51.670;5.808;2023-08-06T03:10:08;2.60;;;2.20;;
62584;SDS011;48643;51.670;5.808;2023-08-06T03:12:36;4.13;;;2.22;;
62584;SDS011;48643;51.670;5.808;2023-08-06T03:15:04;3.08;;;2.30;;
62584;SDS011;48643;51.670;5.808;2023-08-06T03:17:31;5.03;;;2.40;;
62584;SDS011;48643;51.670;5.808;2023-08-06T03:19:59;3.05;;;2.10;;
62584;SDS011;48643;51.670;5.808;2023-08-06T03:22:27;5.10;;;2.40;;
62584;SDS011;48643;51.670;5.808;2023-08-06T03:24:54;5.55;;;2.60;;
62584;SDS011;48643;51.670;5.808;2023-08-06T03:27:23;3.40;;;2.22;;
62584;SDS011;48643;51.670;5.808;2023-08-06T03:29:51;4.90;;;2.30;;
62584;SDS011;48643;51.670;5.808;2023-08-06T03:32:21;2.63;;;2.00;;
62584;SDS011;48643;51.670;5.808;2023-08-06T03:34:47;2.72;;;2.15;;
62584;SDS011;48643;51.670;5.808;2023-08-06T03:37:15;2.80;;;2.10;;
62584;SDS011;48643;51.670;5.808;2023-08-06T03:39:41;2.83;;;2.10;;
62584;SDS011;48643;51.670;5.808;2023-08-06T03:42:08;2.70;;;2.23;;
62584;SDS011;48643;51.670;5.808;2023-08-06T03:44:35;3.10;;;2.10;;
62584;SDS011;48643;51.670;5.808;2023-08-06T03:47:02;2.40;;;2.00;;
62584;SDS011;48643;51.670;5.808;2023-08-06T03:49:29;2.70;;;2.10;;
62584;SDS011;48643;51.670;5.808;2023-08-06T03:51:56;2.70;;;2.15;;
62584;SDS011;48643;51.670;5.808;2023-08-06T03:54:23;4.43;;;2.20;;
62584;SDS011;48643;51.670;5.808;2023-08-06T03:56:50;3.10;;;2.33;;
62584;SDS011;48643;51.670;5.808;2023-08-06T03:59:17;3.63;;;2.17;;
62584;SDS011;48643;51.670;5.808;2023-08-06T04:01:45;3.70;;;2.22;;
62584;SDS011;48643;51.670;5.808;2023-08-06T04:04:12;3.92;;;2.40;;
62584;SDS011;48643;51.670;5.808;2023-08-06T04:06:39;2.90;;;2.00;;
62584;SDS011;48643;51.670;5.808;2023-08-06T04:09:06;6.63;;;2.30;;
62584;SDS011;48643;51.670;5.808;2023-08-06T04:11:33;3.05;;;2.30;;
62584;SDS011;48643;51.670;5.808;2023-08-06T04:14:01;3.13;;;2.13;;
62584;SDS011;48643;51.670;5.808;2023-08-06T04:16:29;2.90;;;2.22;;
62584;SDS011;48643;51.670;5.808;2023-08-06T04:18:56;2.65;;;2.33;;
62584;SDS011;48643;51.670;5.808;2023-08-06T04:21:24;2.97;;;2.25;;
62584;SDS011;48643;51.670;5.808;2023-08-06T04:23:51;3.67;;;2.20;;
62584;SDS011;48643;51.670;5.808;2023-08-06T04:26:18;3.20;;;2.00;;
62584;SDS011;48643;51.670;5.808;2023-08-06T04:28:45;3.05;;;2.30;;
62584;SDS011;48643;51.670;5.808;2023-08-06T04:31:12;2.55;;;2.10;;
62584;SDS011;48643;51.670;5.808;2023-08-06T04:33:41;5.93;;;2.35;;
62584;SDS011;48643;51.670;5.808;2023-08-06T04:36:11;4.63;;;2.20;;
62584;SDS011;48643;51.670;5.808;2023-08-06T04:38:38;4.88;;;2.40;;
62584;SDS011;48643;51.670;5.808;2023-08-06T04:41:07;3.38;;;2.25;;
62584;SDS011;48643;51.670;5.808;2023-08-06T04:43:34;5.18;;;2.30;;
62584;SDS011;48643;51.670;5.808;2023-08-06T04:46:01;3.30;;;2.20;;
62584;SDS011;48643;51.670;5.808;2023-08-06T04:48:28;5.15;;;2.30;;
62584;SDS011;48643;51.670;5.808;2023-08-06T04:50:54;2.70;;;2.05;;
62584;SDS011;48643;51.670;5.808;2023-08-06T04:53:21;3.17;;;2.13;;
62584;SDS011;48643;51.670;5.808;2023-08-06T04:55:48;3.10;;;2.28;;
62584;SDS011;48643;51.670;5.808;2023-08-06T04:58:15;3.22;;;2.40;;
62584;SDS011;48643;51.670;5.808;2023-08-06T05:00:41;3.03;;;2.22;;
62584;SDS011;48643;51.670;5.808;2023-08-06T05:03:08;2.97;;;2.30;;
62584;SDS011;48643;51.670;5.808;2023-08-06T05:05:35;4.78;;;2.30;;
62584;SDS011;48643;51.670;5.808;2023-08-06T05:08:02;4.28;;;2.20;;
62584;SDS011;48643;51.670;5.808;2023-08-06T05:10:29;3.38;;;2.22;;
62584;SDS011;48643;51.670;5.808;2023-08-06T05:12:56;4.38;;;2.30;;
62584;SDS011;48643;51.670;5.808;2023-08-06T05:15:23;3.28;;;2.20;;
62584;SDS011;48643;51.670;5.808;2023-08-06T05:17:51;2.13;;;1.85;;
62584;SDS011;48643;51.670;5.808;2023-08-06T05:20:18;2.75;;;2.20;;
62584;SDS011;48643;51.670;5.808;2023-08-06T05:22:45;3.42;;;2.20;;
62584;SDS011;48643;51.670;5.808;2023-08-06T05:25:13;3.78;;;2.30;;
62584;SDS011;48643;51.670;5.808;2023-08-06T05:27:40;3.42;;;2.10;;
62584;SDS011;48643;51.670;5.808;2023-08-06T05:30:07;2.53;;;2.03;;
62584;SDS011;48643;51.670;5.808;2023-08-06T05:32:34;3.30;;;2.00;;
62584;SDS011;48643;51.670;5.808;2023-08-06T05:35:01;2.90;;;2.30;;
62584;SDS011;48643;51.670;5.808;2023-08-06T05:37:29;3.33;;;2.30;;
62584;SDS011;48643;51.670;5.808;2023-08-06T05:39:55;2.90;;;2.20;;
62584;SDS011;48643;51.670;5.808;2023-08-06T05:42:22;2.55;;;2.10;;
62584;SDS011;48643;51.670;5.808;2023-08-06T05:44:49;2.35;;;2.05;;
62584;SDS011;48643;51.670;5.808;2023-08-06T05:47:16;2.20;;;2.00;;
62584;SDS011;48643;51.670;5.808;2023-08-06T05:49:42;3.47;;;2.22;;
62584;SDS011;48643;51.670;5.808;2023-08-06T05:52:09;2.80;;;2.13;;
62584;SDS011;48643;51.670;5.808;2023-08-06T05:54:36;2.80;;;2.38;;
62584;SDS011;48643;51.670;5.808;2023-08-06T05:57:03;3.10;;;2.40;;
62584;SDS011;48643;51.670;5.808;2023-08-06T05:59:30;3.67;;;2.30;;
62584;SDS011;48643;51.670;5.808;2023-08-06T06:01:57;3.42;;;2.40;;
62584;SDS011;48643;51.670;5.808;2023-08-06T06:04:24;3.30;;;2.25;;
62584;SDS011;48643;51.670;5.808;2023-08-06T06:06:51;3.08;;;2.25;;
62584;SDS011;48643;51.670;5.808;2023-08-06T06:09:18;3.22;;;2.17;;
62584;SDS011;48643;51.670;5.808;2023-08-06T06:11:45;2.50;;;2.10;;
62584;SDS011;48643;51.670;5.808;2023-08-06T06:14:12;2.80;;;2.28;;
62584;SDS011;48643;51.670;5.808;2023-08-06T06:16:38;8.23;;;4.70;;
62584;SDS011;48643;51.670;5.808;2023-08-06T06:19:05;6.85;;;5.47;;
62584;SDS011;48643;51.670;5.808;2023-08-06T06:21:32;13.63;;;6.45;;
62584;SDS011;48643;51.670;5.808;2023-08-06T06:23:59;15.68;;;6.50;;
62584;SDS011;48643;51.670;5.808;2023-08-06T06:26:26;10.10;;;6.00;;
62584;SDS011;48643;51.670;5.808;2023-08-06T06:28:53;6.63;;;4.65;;
62584;SDS011;48643;51.670;5.808;2023-08-06T06:31:19;10.93;;;5.53;;
62584;SDS011;48643;51.670;5.808;2023-08-06T06:33:46;10.00;;;5.10;;
62584;SDS011;48643;51.670;5.808;2023-08-06T06:36:13;7.10;;;4.60;;
62584;SDS011;48643;51.670;5.808;2023-08-06T06:38:40;7.75;;;4.30;;
62584;SDS011;48643;51.670;5.808;2023-08-06T06:41:07;6.90;;;4.50;;
62584;SDS011;48643;51.670;5.808;2023-08-06T06:43:34;8.85;;;4.47;;
62584;SDS011;48643;51.670;5.808;2023-08-06T06:46:01;8.18;;;4.50;;
62584;SDS011;48643;51.670;5.808;2023-08-06T06:48:28;8.18;;;4.80;;
62584;SDS011;48643;51.670;5.808;2023-08-06T06:50:57;8.70;;;4.63;;
62584;SDS011;48643;51.670;5.808;2023-08-06T06:53:24;10.43;;;4.68;;
62584;SDS011;48643;51.670;5.808;2023-08-06T06:55:54;10.77;;;4.97;;
62584;SDS011;48643;51.670;5.808;2023-08-06T06:58:21;7.45;;;4.80;;
62584;SDS011;48643;51.670;5.808;2023-08-06T07:00:48;9.07;;;4.72;;
62584;SDS011;48643;51.670;5.808;2023-08-06T07:03:15;7.80;;;4.72;;
62584;SDS011;48643;51.670;5.808;2023-08-06T07:05:43;8.73;;;4.80;;
62584;SDS011;48643;51.670;5.808;2023-08-06T07:08:10;8.20;;;4.88;;
62584;SDS011;48643;51.670;5.808;2023-08-06T07:10:37;12.18;;;5.05;;
62584;SDS011;48643;51.670;5.808;2023-08-06T07:13:09;14.07;;;5.28;;
62584;SDS011;48643;51.670;5.808;2023-08-06T07:15:36;7.50;;;4.85;;
62584;SDS011;48643;51.670;5.808;2023-08-06T07:18:03;12.35;;;5.25;;
62584;SDS011;48643;51.670;5.808;2023-08-06T07:20:30;8.60;;;4.70;;
62584;SDS011;48643;51.670;5.808;2023-08-06T07:25:26;10.93;;;4.32;;
62584;SDS011;48643;51.670;5.808;2023-08-06T07:27:53;9.40;;;5.00;;
62584;SDS011;48643;51.670;5.808;2023-08-06T07:30:19;8.35;;;4.80;;
62584;SDS011;48643;51.670;5.808;2023-08-06T07:32:46;6.35;;;4.47;;
62584;SDS011;48643;51.670;5.808;2023-08-06T07:35:13;7.25;;;4.72;;
62584;SDS011;48643;51.670;5.808;2023-08-06T07:37:40;8.90;;;4.80;;
62584;SDS011;48643;51.670;5.808;2023-08-06T07:40:07;10.60;;;4.45;;
62584;SDS011;48643;51.670;5.808;2023-08-06T07:42:35;22.50;;;5.60;;
62584;SDS011;48643;51.670;5.808;2023-08-06T07:45:02;11.70;;;5.18;;
62584;SDS011;48643;51.670;5.808;2023-08-06T07:47:29;11.38;;;5.85;;
62584;SDS011;48643;51.670;5.808;2023-08-06T07:49:56;19.58;;;5.20;;
62584;SDS011;48643;51.670;5.808;2023-08-06T07:52:23;10.68;;;4.70;;
62584;SDS011;48643;51.670;5.808;2023-08-06T07:54:50;28.92;;;6.07;;
62584;SDS011;48643;51.670;5.808;2023-08-06T07:57:17;18.00;;;6.07;;
62584;SDS011;48643;51.670;5.808;2023-08-06T07:59:43;12.90;;;6.25;;
62584;SDS011;48643;51.670;5.808;2023-08-06T08:02:10;24.73;;;6.07;;
62584;SDS011;48643;51.670;5.808;2023-08-06T08:04:37;19.77;;;5.45;;
62584;SDS011;48643;51.670;5.808;2023-08-06T08:07:04;9.65;;;5.20;;
62584;SDS011;48643;51.670;5.808;2023-08-06T08:09:31;7.32;;;4.85;;
62584;SDS011;48643;51.670;5.808;2023-08-06T08:11:58;10.02;;;4.72;;
62584;SDS011;48643;51.670;5.808;2023-08-06T08:14:27;8.27;;;4.50;;
62584;SDS011;48643;51.670;5.808;2023-08-06T08:16:55;7.80;;;4.35;;
62584;SDS011;48643;51.670;5.808;2023-08-06T08:19:22;9.25;;;4.38;;
62584;SDS011;48643;51.670;5.808;2023-08-06T08:21:49;10.57;;;4.28;;
62584;SDS011;48643;51.670;5.808;2023-08-06T08:24:16;12.88;;;4.30;;
62584;SDS011;48643;51.670;5.808;2023-08-06T08:26:46;5.82;;;3.75;;
62584;SDS011;48643;51.670;5.808;2023-08-06T08:29:12;9.55;;;3.92;;
62584;SDS011;48643;51.670;5.808;2023-08-06T08:31:39;13.23;;;5.60;;
62584;SDS011;48643;51.670;5.808;2023-08-06T08:34:06;22.58;;;6.07;;
62584;SDS011;48643;51.670;5.808;2023-08-06T08:36:33;12.23;;;5.97;;
62584;SDS011;48643;51.670;5.808;2023-08-06T08:39:00;18.90;;;6.15;;
62584;SDS011;48643;51.670;5.808;2023-08-06T08:41:29;13.65;;;5.55;;
62584;SDS011;48643;51.670;5.808;2023-08-06T08:43:58;14.77;;;5.57;;
62584;SDS011;48643;51.670;5.808;2023-08-06T08:46:30;9.75;;;5.70;;
62584;SDS011;48643;51.670;5.808;2023-08-06T08:49:00;13.43;;;5.22;;
62584;SDS011;48643;51.670;5.808;2023-08-06T08:51:28;12.52;;;4.78;;
62584;SDS011;48643;51.670;5.808;2023-08-06T08:53:55;13.30;;;5.25;;
62584;SDS011;48643;51.670;5.808;2023-08-06T08:56:23;12.80;;;4.72;;
62584;SDS011;48643;51.670;5.808;2023-08-06T08:58:50;9.07;;;4.60;;
62584;SDS011;48643;51.670;5.808;2023-08-06T09:01:20;11.38;;;5.10;;
62584;SDS011;48643;51.670;5.808;2023-08-06T09:03:51;7.28;;;4.10;;
62584;SDS011;48643;51.670;5.808;2023-08-06T09:06:18;9.35;;;4.50;;
62584;SDS011;48643;51.670;5.808;2023-08-06T09:08:51;6.17;;;4.23;;
62584;SDS011;48643;51.670;5.808;2023-08-06T09:11:45;10.20;;;3.80;;
62584;SDS011;48643;51.670;5.808;2023-08-06T09:14:12;7.30;;;3.75;;
62584;SDS011;48643;51.670;5.808;2023-08-06T09:16:38;22.05;;;4.25;;
62584;SDS011;48643;51.670;5.808;2023-08-06T09:19:12;8.70;;;3.70;;
62584;SDS011;48643;51.670;5.808;2023-08-06T09:21:39;9.23;;;4.13;;
62584;SDS011;48643;51.670;5.808;2023-08-06T09:24:07;11.50;;;3.70;;
62584;SDS011;48643;51.670;5.808;2023-08-06T09:26:40;6.78;;;3.70;;
62584;SDS011;48643;51.670;5.808;2023-08-06T09:29:08;12.60;;;3.70;;
62584;SDS011;48643;51.670;5.808;2023-08-06T09:31:41;11.80;;;3.83;;
62584;SDS011;48643;51.670;5.808;2023-08-06T09:34:14;15.88;;;3.72;;
62584;SDS011;48643;51.670;5.808;2023-08-06T09:36:46;7.35;;;3.40;;
62584;SDS011;48643;51.670;5.808;2023-08-06T09:39:17;4.55;;;3.30;;
62584;SDS011;48643;51.670;5.808;2023-08-06T09:41:46;8.15;;;3.42;;
62584;SDS011;48643;51.670;5.808;2023-08-06T09:44:22;4.93;;;3.10;;
62584;SDS011;48643;51.670;5.808;2023-08-06T09:46:55;6.55;;;3.40;;
62584;SDS011;48643;51.670;5.808;2023-08-06T09:51:54;7.22;;;3.60;;
62584;SDS011;48643;51.670;5.808;2023-08-06T09:54:26;13.35;;;3.65;;
62584;SDS011;48643;51.670;5.808;2023-08-06T09:59:23;9.73;;;3.15;;
62584;SDS011;48643;51.670;5.808;2023-08-06T10:01:50;13.02;;;3.55;;
62584;SDS011;48643;51.670;5.808;2023-08-06T10:04:19;6.03;;;3.10;;
62584;SDS011;48643;51.670;5.808;2023-08-06T10:06:51;4.90;;;3.10;;
62584;SDS011;48643;51.670;5.808;2023-08-06T10:09:19;16.13;;;3.47;;
62584;SDS011;48643;51.670;5.808;2023-08-06T10:11:48;8.45;;;3.38;;
62584;SDS011;48643;51.670;5.808;2023-08-06T10:14:30;5.95;;;3.45;;
62584;SDS011;48643;51.670;5.808;2023-08-06T10:16:59;5.28;;;3.10;;
62584;SDS011;48643;51.670;5.808;2023-08-06T10:19:27;7.10;;;3.08;;
62584;SDS011;48643;51.670;5.808;2023-08-06T10:24:47;6.78;;;2.92;;
62584;SDS011;48643;51.670;5.808;2023-08-06T10:27:22;5.00;;;2.90;;
62584;SDS011;48643;51.670;5.808;2023-08-06T10:29:54;4.18;;;2.90;;
62584;SDS011;48643;51.670;5.808;2023-08-06T10:32:46;5.07;;;2.80;;
62584;SDS011;48643;51.670;5.808;2023-08-06T10:38:08;6.63;;;2.97;;
62584;SDS011;48643;51.670;5.808;2023-08-06T10:43:07;4.30;;;2.83;;
62584;SDS011;48643;51.670;5.808;2023-08-06T10:45:37;4.78;;;2.70;;
62584;SDS011;48643;51.670;5.808;2023-08-06T10:48:04;6.72;;;2.80;;
62584;SDS011;48643;51.670;5.808;2023-08-06T10:50:31;4.88;;;2.72;;
62584;SDS011;48643;51.670;5.808;2023-08-06T10:53:03;5.22;;;2.90;;
62584;SDS011;48643;51.670;5.808;2023-08-06T10:55:31;4.18;;;2.60;;
62584;SDS011;48643;51.670;5.808;2023-08-06T10:57:59;4.50;;;2.67;;
62584;SDS011;48643;51.670;5.808;2023-08-06T11:00:26;4.95;;;2.78;;
62584;SDS011;48643;51.670;5.808;2023-08-06T11:02:53;3.95;;;2.65;;
62584;SDS011;48643;51.670;5.808;2023-08-06T11:05:21;4.60;;;2.72;;
62584;SDS011;48643;51.670;5.808;2023-08-06T11:07:48;5.20;;;2.80;;
62584;SDS011;48643;51.670;5.808;2023-08-06T11:12:44;6.13;;;2.85;;
62584;SDS011;48643;51.670;5.808;2023-08-06T11:15:11;3.65;;;2.58;;
62584;SDS011;48643;51.670;5.808;2023-08-06T11:17:39;3.38;;;2.40;;
62584;SDS011;48643;51.670;5.808;2023-08-06T11:20:07;3.97;;;2.60;;
62584;SDS011;48643;51.670;5.808;2023-08-06T11:22:35;7.65;;;2.40;;
62584;SDS011;48643;51.670;5.808;2023-08-06T11:25:03;7.10;;;2.73;;
62584;SDS011;48643;51.670;5.808;2023-08-06T11:27:31;5.25;;;2.67;;
62584;SDS011;48643;51.670;5.808;2023-08-06T11:29:58;5.65;;;2.80;;
62584;SDS011;48643;51.670;5.808;2023-08-06T11:32:25;4.60;;;2.45;;
62584;SDS011;48643;51.670;5.808;2023-08-06T11:34:54;4.47;;;2.33;;
62584;SDS011;48643;51.670;5.808;2023-08-06T11:37:21;5.28;;;2.53;;
62584;SDS011;48643;51.670;5.808;2023-08-06T11:39:51;5.35;;;2.55;;
62584;SDS011;48643;51.670;5.808;2023-08-06T11:42:18;6.50;;;2.53;;
62584;SDS011;48643;51.670;5.808;2023-08-06T11:44:45;4.88;;;2.25;;
62584;SDS011;48643;51.670;5.808;2023-08-06T11:47:13;6.82;;;2.40;;
62584;SDS011;48643;51.670;5.808;2023-08-06T11:49:42;6.68;;;2.63;;
62584;SDS011;48643;51.670;5.808;2023-08-06T11:52:33;3.28;;;2.20;;
62584;SDS011;48643;51.670;5.808;2023-08-06T11:55:05;5.10;;;2.20;;
62584;SDS011;48643;51.670;5.808;2023-08-06T11:57:34;4.78;;;2.40;;
62584;SDS011;48643;51.670;5.808;2023-08-06T12:00:11;6.55;;;2.20;;
62584;SDS011;48643;51.670;5.808;2023-08-06T12:02:42;4.43;;;2.30;;
62584;SDS011;48643;51.670;5.808;2023-08-06T12:07:46;3.20;;;2.10;;
62584;SDS011;48643;51.670;5.808;2023-08-06T12:10:15;3.78;;;2.15;;
62584;SDS011;48643;51.670;5.808;2023-08-06T12:12:42;3.20;;;2.15;;
62584;SDS011;48643;51.670;5.808;2023-08-06T12:15:09;4.50;;;2.20;;
62584;SDS011;48643;51.670;5.808;2023-08-06T12:17:37;5.43;;;2.40;;
62584;SDS011;48643;51.670;5.808;2023-08-06T12:20:04;4.88;;;2.35;;
62584;SDS011;48643;51.670;5.808;2023-08-06T12:22:36;3.15;;;2.25;;
62584;SDS011;48643;51.670;5.808;2023-08-06T12:25:10;4.10;;;2.15;;
62584;SDS011;48643;51.670;5.808;2023-08-06T12:27:41;2.63;;;2.00;;
62584;SDS011;48643;51.670;5.808;2023-08-06T12:30:09;2.65;;;1.90;;
62584;SDS011;48643;51.670;5.808;2023-08-06T12:32:37;3.65;;;2.10;;
62584;SDS011;48643;51.670;5.808;2023-08-06T12:35:04;5.45;;;2.10;;
62584;SDS011;48643;51.670;5.808;2023-08-06T12:37:34;3.33;;;2.10;;
62584;SDS011;48643;51.670;5.808;2023-08-06T12:40:01;4.03;;;2.20;;
62584;SDS011;48643;51.670;5.808;2023-08-06T12:42:49;3.42;;;2.15;;
62584;SDS011;48643;51.670;5.808;2023-08-06T12:45:17;4.10;;;2.28;;
62584;SDS011;48643;51.670;5.808;2023-08-06T12:47:47;2.97;;;2.00;;
62584;SDS011;48643;51.670;5.808;2023-08-06T12:50:15;2.50;;;2.05;;
62584;SDS011;48643;51.670;5.808;2023-08-06T12:52:43;7.10;;;2.08;;
62584;SDS011;48643;51.670;5.808;2023-08-06T12:55:10;4.90;;;2.10;;
62584;SDS011;48643;51.670;5.808;2023-08-06T12:57:37;2.63;;;2.00;;
62584;SDS011;48643;51.670;5.808;2023-08-06T13:00:22;7.57;;;2.25;;
62584;SDS011;48643;51.670;5.808;2023-08-06T13:02:49;4.30;;;2.00;;
62584;SDS011;48643;51.670;5.808;2023-08-06T13:05:16;3.05;;;2.08;;
62584;SDS011;48643;51.670;5.808;2023-08-06T13:07:43;3.65;;;1.73;;
62584;SDS011;48643;51.670;5.808;2023-08-06T13:10:10;7.22;;;2.03;;
62584;SDS011;48643;51.670;5.808;2023-08-06T13:12:37;2.85;;;1.98;;
62584;SDS011;48643;51.670;5.808;2023-08-06T13:15:04;5.47;;;2.00;;
62584;SDS011;48643;51.670;5.808;2023-08-06T13:17:31;3.85;;;1.80;;
62584;SDS011;48643;51.670;5.808;2023-08-06T13:19:58;6.90;;;2.08;;
62584;SDS011;48643;51.670;5.808;2023-08-06T13:22:25;5.43;;;2.08;;
62584;SDS011;48643;51.670;5.808;2023-08-06T13:24:52;4.07;;;2.10;;
62584;SDS011;48643;51.670;5.808;2023-08-06T13:27:19;3.13;;;2.10;;
62584;SDS011;48643;51.670;5.808;2023-08-06T13:29:46;4.97;;;2.30;;
62584;SDS011;48643;51.670;5.808;2023-08-06T13:32:12;4.38;;;2.20;;
62584;SDS011;48643;51.670;5.808;2023-08-06T13:34:39;2.95;;;1.88;;
62584;SDS011;48643;51.670;5.808;2023-08-06T13:37:06;3.05;;;2.10;;
62584;SDS011;48643;51.670;5.808;2023-08-06T13:39:33;3.90;;;2.13;;
62584;SDS011;48643;51.670;5.808;2023-08-06T13:42:00;3.80;;;1.90;;
62584;SDS011;48643;51.670;5.808;2023-08-06T13:44:26;3.00;;;1.85;;
62584;SDS011;48643;51.670;5.808;2023-08-06T13:46:55;3.00;;;2.03;;
62584;SDS011;48643;51.670;5.808;2023-08-06T13:49:22;3.67;;;2.00;;
62584;SDS011;48643;51.670;5.808;2023-08-06T13:51:49;3.83;;;1.90;;
62584;SDS011;48643;51.670;5.808;2023-08-06T13:54:16;3.28;;;1.80;;
62584;SDS011;48643;51.670;5.808;2023-08-06T13:56:43;3.42;;;2.05;;
62584;SDS011;48643;51.670;5.808;2023-08-06T13:59:09;3.95;;;1.90;;
62584;SDS011;48643;51.670;5.808;2023-08-06T14:01:40;3.67;;;1.92;;
62584;SDS011;48643;51.670;5.808;2023-08-06T14:04:17;2.20;;;1.77;;
62584;SDS011;48643;51.670;5.808;2023-08-06T14:06:43;2.92;;;1.90;;
62584;SDS011;48643;51.670;5.808;2023-08-06T14:09:10;2.78;;;1.80;;
62584;SDS011;48643;51.670;5.808;2023-08-06T14:11:40;5.57;;;1.90;;
62584;SDS011;48643;51.670;5.808;2023-08-06T14:14:07;4.10;;;1.90;;
62584;SDS011;48643;51.670;5.808;2023-08-06T14:16:34;3.47;;;1.95;;
62584;SDS011;48643;51.670;5.808;2023-08-06T14:19:01;2.95;;;1.75;;
62584;SDS011;48643;51.670;5.808;2023-08-06T14:21:28;5.53;;;1.80;;
62584;SDS011;48643;51.670;5.808;2023-08-06T14:23:55;7.43;;;1.95;;
62584;SDS011;48643;51.670;5.808;2023-08-06T14:26:22;3.13;;;1.73;;
62584;SDS011;48643;51.670;5.808;2023-08-06T14:28:49;3.28;;;1.90;;
62584;SDS011;48643;51.670;5.808;2023-08-06T14:31:20;2.50;;;1.60;;
62584;SDS011;48643;51.670;5.808;2023-08-06T14:33:47;3.00;;;1.90;;
62584;SDS011;48643;51.670;5.808;2023-08-06T14:36:14;2.97;;;1.88;;
62584;SDS011;48643;51.670;5.808;2023-08-06T14:38:41;3.58;;;1.80;;
62584;SDS011;48643;51.670;5.808;2023-08-06T14:41:23;4.05;;;1.88;;
62584;SDS011;48643;51.670;5.808;2023-08-06T14:43:50;3.38;;;1.77;;
62584;SDS011;48643;51.670;5.808;2023-08-06T14:46:18;2.67;;;1.90;;
62584;SDS011;48643;51.670;5.808;2023-08-06T14:48:45;4.28;;;1.83;;
62584;SDS011;48643;51.670;5.808;2023-08-06T14:51:12;6.03;;;1.70;;
62584;SDS011;48643;51.670;5.808;2023-08-06T14:53:39;2.72;;;1.80;;
62584;SDS011;48643;51.670;5.808;2023-08-06T14:56:05;3.08;;;1.80;;
62584;SDS011;48643;51.670;5.808;2023-08-06T14:58:32;2.90;;;1.90;;
62584;SDS011;48643;51.670;5.808;2023-08-06T15:00:59;4.28;;;1.70;;
62584;SDS011;48643;51.670;5.808;2023-08-06T15:03:26;4.78;;;1.58;;
62584;SDS011;48643;51.670;5.808;2023-08-06T15:05:54;2.60;;;1.70;;
62584;SDS011;48643;51.670;5.808;2023-08-06T15:08:21;3.25;;;1.90;;
62584;SDS011;48643;51.670;5.808;2023-08-06T15:10:51;2.65;;;1.55;;
62584;SDS011;48643;51.670;5.808;2023-08-06T15:13:19;2.33;;;1.63;;
62584;SDS011;48643;51.670;5.808;2023-08-06T15:15:49;4.55;;;1.98;;